Time;durP1;ratioP1;P1;durP2;ratioP2;P2;SDS_P1;SDS_P2;PMS_P1;PMS_P2;Temp;Humidity;BMP_temperature;BMP_pressure;BME280_temperature;BME280_humidity;BME280_pressure;Samples;Min_cycle;Max_cycle;Signal;HPM_P1;HPM_P2
2021/04/10 00:02:27;;;;;;;;;;;;;;;0.56;100.00;98796.72;5053141;28;19925;-81
2021/04/10 00:04:54;;;;;;;;;;;;;;;0.66;100.00;98793.41;5054117;28;19925;-80
2021/04/10 00:07:20;;;;;;;;;;;;;;;0.62;100.00;98784.25;5054079;28;19956;-80
2021/04/10 00:09:47;;;;;;;;;;;;;;;0.40;100.00;98796.03;5054325;28;19970;-80
2021/04/10 00:12:14;;;;;;;;;;;;;;;0.15;100.00;98796.69;5054130;28;20392;-80
2021/04/10 00:14:40;;;;;;;;;;;;;;;-0.10;100.00;98791.47;5052997;28;20035;-80
2021/04/10 00:17:07;;;;;;;;;;;;;;;-0.26;100.00;98787.19;5054084;28;20012;-80
2021/04/10 00:19:34;;;;;;;;;;;;;;;-0.43;100.00;98795.81;5053856;28;19998;-81
2021/04/10 00:22:01;;;;;;;;;;;;;;;-0.54;100.00;98786.53;5036101;28;19931;-80
2021/04/10 00:24:28;;;;;;;;;;;;;;;-0.64;100.00;98800.81;5053103;28;19924;-81
2021/04/10 00:26:54;;;;;;;;;;;;;;;-0.59;100.00;98795.84;5054168;28;20375;-81
2021/04/10 00:29:21;;;;;;;;;;;;;;;-0.47;100.00;98792.97;5053111;28;19925;-81
2021/04/10 00:31:48;;;;;;;;;;;;;;;-0.49;100.00;98800.81;5054126;28;19931;-82
2021/04/10 00:34:14;;;;;;;;;;;;;;;-0.51;100.00;98803.09;5086424;28;20291;-82
2021/04/10 00:36:41;;;;;;;;;;;;;;;-0.50;100.00;98806.66;5053995;28;19924;-82
2021/04/10 00:39:07;;;;;;;;;;;;;;;-0.45;100.00;98800.88;5054231;28;19952;-82
2021/04/10 00:41:34;;;;;;;;;;;;;;;-0.42;100.00;98808.38;5053699;28;20010;-82
2021/04/10 00:44:01;;;;;;;;;;;;;;;0.03;100.00;98810.56;5052991;28;19971;-82
2021/04/10 00:46:28;;;;;;;;;;;;;;;0.02;100.00;98809.75;5036452;28;20019;-81
2021/04/10 00:48:55;;;;;;;;;;;;;;;-0.17;100.00;98816.03;5085791;28;20019;-81
2021/04/10 00:51:22;;;;;;;;;;;;;;;-0.19;100.00;98812.06;5053826;28;19931;-82
2021/04/10 00:53:48;;;;;;;;;;;;;;;-0.24;100.00;98818.63;5068859;28;19933;-82
2021/04/10 00:56:16;;;;;;;;;;;;;;;-0.28;100.00;98819.69;5053745;28;20381;-82
2021/04/10 00:58:43;;;;;;;;;;;;;;;-0.18;100.00;98811.69;5052836;28;19924;-81
2021/04/10 01:01:10;;;;;;;;;;;;;;;0.00;100.00;98817.59;5052276;28;20277;-82
2021/04/10 01:03:41;;;;;;;;;;;;;;;0.22;100.00;98814.13;5069508;28;19925;-82
2021/04/10 01:06:08;;;;;;;;;;;;;;;0.54;100.00;98810.06;5052284;28;20323;-81
2021/04/10 01:08:35;;;;;;;;;;;;;;;0.35;100.00;98815.56;5035758;28;19968;-80
2021/04/10 01:11:27;;;;;;;;;;;;;;;0.30;100.00;98815.06;5053376;28;19979;-81
2021/04/10 01:14:01;;;;;;;;;;;;;;;0.39;100.00;98821.13;5053672;28;19932;-81
2021/04/10 01:16:34;;;;;;;;;;;;;;;0.45;100.00;98806.75;5056184;28;19975;-82
2021/04/10 01:19:10;;;;;;;;;;;;;;;0.31;100.00;98822.94;5073114;28;19925;-82
2021/04/10 01:21:41;;;;;;;;;;;;;;;0.67;100.00;98814.22;5056061;28;19925;-82
2021/04/10 01:24:14;;;;;;;;;;;;;;;0.65;100.00;98819.28;5056467;28;20269;-82
2021/04/10 01:27:00;;;;;;;;;;;;;;;0.62;100.00;98814.50;5090124;28;19925;-82
2021/04/10 01:29:27;;;;;;;;;;;;;;;0.43;100.00;98805.50;5056610;28;20322;-82
2021/04/10 01:31:55;;;;;;;;;;;;;;;0.25;100.00;98802.41;5056309;28;19929;-82
2021/04/10 01:34:29;;;;;;;;;;;;;;;0.20;100.00;98807.41;5055935;28;19932;-82
2021/04/10 01:37:00;;;;;;;;;;;;;;;0.16;100.00;98804.56;5073026;28;19932;-82
2021/04/10 01:39:28;;;;;;;;;;;;;;;0.05;100.00;98800.81;5056123;28;19924;-82
2021/04/10 01:41:55;;;;;;;;;;;;;;;0.03;100.00;98802.31;5072454;28;19928;-82
2021/04/10 01:44:24;;;;;;;;;;;;;;;0.04;100.00;98801.97;5072389;28;19925;-82
2021/04/10 01:46:53;;;;;;;;;;;;;;;0.06;100.00;98798.84;5055907;28;19928;-82
2021/04/10 01:49:21;;;;;;;;;;;;;;;0.06;100.00;98798.84;5056792;28;19924;-82
2021/04/10 01:51:48;;;;;;;;;;;;;;;0.18;100.00;98801.47;5022840;28;19925;-82
2021/04/10 01:54:16;;;;;;;;;;;;;;;0.10;100.00;98806.03;5089131;28;19986;-82
2021/04/10 01:56:46;;;;;;;;;;;;;;;0.51;100.00;98805.28;5055825;28;19925;-81
2021/04/10 01:59:21;;;;;;;;;;;;;;;0.70;100.00;98808.00;5056713;28;19932;-81
2021/04/10 02:01:53;;;;;;;;;;;;;;;0.70;100.00;98802.50;5040225;28;19932;-81
2021/04/10 02:04:26;;;;;;;;;;;;;;;0.73;100.00;98807.25;5055390;28;19967;-81
2021/04/10 02:06:55;;;;;;;;;;;;;;;0.74;100.00;98806.13;5055906;28;20019;-81
2021/04/10 02:09:26;;;;;;;;;;;;;;;0.59;100.00;98809.75;5072866;28;20013;-81
2021/04/10 02:12:04;;;;;;;;;;;;;;;0.15;100.00;98803.00;5072368;28;19924;-81
2021/04/10 02:14:42;;;;;;;;;;;;;;;0.02;100.00;98809.00;5073508;28;20343;-81
2021/04/10 02:17:14;;;;;;;;;;;;;;;-0.01;100.00;98805.00;5088907;28;19924;-81
2021/04/10 02:19:50;;;;;;;;;;;;;;;0.00;100.00;98812.09;5088507;28;20044;-81
2021/04/10 02:22:17;;;;;;;;;;;;;;;0.11;100.00;98812.31;5055520;28;20453;-81
2021/04/10 02:24:44;;;;;;;;;;;;;;;0.32;100.00;98802.53;5055215;28;19924;-81
2021/04/10 02:27:12;;;;;;;;;;;;;;;0.45;100.00;98808.69;5038653;28;19936;-81
2021/04/10 02:29:48;;;;;;;;;;;;;;;0.47;100.00;98815.41;5055201;28;20058;-81
2021/04/10 02:32:30;;;;;;;;;;;;;;;0.55;100.00;98819.88;5054843;28;20387;-81
2021/04/10 02:35:02;;;;;;;;;;;;;;;0.83;100.00;98812.19;5071737;28;19924;-81
2021/04/10 02:37:30;;;;;;;;;;;;;;;0.77;100.00;98810.91;5056365;28;19955;-81
2021/04/10 02:39:59;;;;;;;;;;;;;;;0.84;100.00;98819.25;5054764;28;19925;-81
2021/04/10 02:42:28;;;;;;;;;;;;;;;1.11;100.00;98814.63;5055104;28;19925;-81
2021/04/10 02:44:57;;;;;;;;;;;;;;;0.95;100.00;98814.75;5054963;28;20014;-81
2021/04/10 02:47:25;;;;;;;;;;;;;;;1.17;100.00;98815.91;5054641;28;19925;-81
2021/04/10 02:49:54;;;;;;;;;;;;;;;1.19;100.00;98814.38;5054949;28;20019;-81
2021/04/10 02:52:28;;;;;;;;;;;;;;;1.25;100.00;98817.63;5051470;28;20360;-81
2021/04/10 02:54:56;;;;;;;;;;;;;;;0.91;100.00;98811.13;5046685;28;19935;-81
2021/04/10 02:57:23;;;;;;;;;;;;;;;0.84;100.00;98812.97;5054570;28;20402;-81
2021/04/10 02:59:53;;;;;;;;;;;;;;;0.83;100.00;98812.19;5071377;28;19929;-81
2021/04/10 03:02:21;;;;;;;;;;;;;;;0.91;100.00;98811.13;5054495;28;20384;-81
2021/04/10 03:05:14;;;;;;;;;;;;;;;0.96;100.00;98810.84;5054464;28;20032;-81
2021/04/10 03:07:48;;;;;;;;;;;;;;;1.06;100.00;98809.44;5053987;28;19925;-81
2021/04/10 03:10:22;;;;;;;;;;;;;;;1.05;100.00;98811.38;5055745;28;19932;-81
2021/04/10 03:12:52;;;;;;;;;;;;;;;1.03;100.00;98816.44;5071248;28;19932;-81
2021/04/10 03:15:22;;;;;;;;;;;;;;;1.03;100.00;98821.97;5054378;28;20357;-81
2021/04/10 03:17:50;;;;;;;;;;;;;;;1.16;100.00;98815.13;5070812;28;19932;-81
2021/04/10 03:20:19;;;;;;;;;;;;;;;1.28;100.00;98817.69;5054202;28;20245;-81
2021/04/10 03:22:48;;;;;;;;;;;;;;;1.37;100.00;98809.16;5071390;28;20245;-81
2021/04/10 03:25:22;;;;;;;;;;;;;;;1.48;100.00;98815.66;5053476;28;19925;-81
2021/04/10 03:27:53;;;;;;;;;;;;;;;1.48;100.00;98816.44;5053830;28;20383;-82
2021/04/10 03:30:20;;;;;;;;;;;;;;;1.58;100.00;98813.06;5053683;28;19931;-81
2021/04/10 03:32:49;;;;;;;;;;;;;;;1.72;100.00;98810.53;5054158;28;19975;-81
2021/04/10 03:35:16;;;;;;;;;;;;;;;1.69;100.00;98815.97;5087085;28;19932;-81
2021/04/10 03:37:46;;;;;;;;;;;;;;;2.03;100.00;98814.09;5053082;28;20365;-80
2021/04/10 03:40:17;;;;;;;;;;;;;;;1.91;100.00;98806.06;5038160;28;19925;-81
2021/04/10 03:42:47;;;;;;;;;;;;;;;1.68;100.00;98820.66;5053735;28;19932;-81
2021/04/10 03:45:21;;;;;;;;;;;;;;;1.49;100.00;98817.22;5053704;28;19931;-81
2021/04/10 03:47:53;;;;;;;;;;;;;;;1.43;100.00;98816.75;5053652;28;19963;-81
2021/04/10 03:50:22;;;;;;;;;;;;;;;1.52;100.00;98816.47;5069999;28;20008;-81
2021/04/10 03:52:51;;;;;;;;;;;;;;;1.46;100.00;98813.25;5086245;28;20372;-81
2021/04/10 03:55:18;;;;;;;;;;;;;;;1.51;100.00;98814.91;5053544;28;19925;-81
2021/04/10 03:57:45;;;;;;;;;;;;;;;1.56;100.00;98823.63;5052841;28;19999;-81
2021/04/10 04:00:12;;;;;;;;;;;;;;;1.74;100.00;98818.41;5070024;28;19924;-81
2021/04/10 04:02:42;;;;;;;;;;;;;;;1.73;100.00;98828.63;5053597;28;19974;-81
2021/04/10 04:05:13;;;;;;;;;;;;;;;1.46;100.00;98821.53;5069492;28;19925;-81
2021/04/10 04:07:40;;;;;;;;;;;;;;;1.45;100.00;98821.88;5054044;28;20007;-81
2021/04/10 04:10:07;;;;;;;;;;;;;;;1.40;100.00;98817.50;5069781;28;20011;-81
2021/04/10 04:12:34;;;;;;;;;;;;;;;1.40;100.00;98820.25;5053361;28;19932;-81
2021/04/10 04:15:01;;;;;;;;;;;;;;;1.41;100.00;98821.00;5054486;28;20249;-81
2021/04/10 04:17:27;;;;;;;;;;;;;;;1.42;100.00;98819.88;5086519;28;19925;-81
2021/04/10 04:19:54;;;;;;;;;;;;;;;1.45;100.00;98816.38;5054130;28;19928;-81
2021/04/10 04:22:21;;;;;;;;;;;;;;;1.39;100.00;98817.84;5051878;28;20063;-81
2021/04/10 04:24:48;;;;;;;;;;;;;;;1.39;100.00;98824.13;5079150;28;20078;-81
2021/04/10 04:27:17;;;;;;;;;;;;;;;1.40;100.00;98820.25;5054055;28;19929;-81
2021/04/10 04:29:43;;;;;;;;;;;;;;;1.39;100.00;98821.38;5052666;28;20025;-81
2021/04/10 04:32:10;;;;;;;;;;;;;;;1.41;100.00;98827.31;5053945;28;19959;-81
2021/04/10 04:34:37;;;;;;;;;;;;;;;1.45;100.00;98833.69;5052738;28;19925;-81
2021/04/10 04:37:04;;;;;;;;;;;;;;;1.49;100.00;98833.75;5053802;28;20307;-81
2021/04/10 04:39:31;;;;;;;;;;;;;;;1.51;100.00;98832.22;5036400;28;20019;-81
2021/04/10 04:41:58;;;;;;;;;;;;;;;1.09;100.00;98826.00;5069092;28;20338;-81
2021/04/10 04:44:25;;;;;;;;;;;;;;;1.01;100.00;98842.75;5085615;28;19948;-81
2021/04/10 04:46:52;;;;;;;;;;;;;;;1.05;100.00;98836.16;5053982;28;19926;-81
2021/04/10 04:49:19;;;;;;;;;;;;;;;1.07;100.00;98842.09;5053618;28;19925;-81
2021/04/10 04:51:46;;;;;;;;;;;;;;;1.46;100.00;98840.78;5069281;28;19929;-81
2021/04/10 04:54:12;;;;;;;;;;;;;;;1.57;100.00;98840.97;5053264;28;20511;-81
2021/04/10 04:56:39;;;;;;;;;;;;;;;1.42;100.00;98837.16;5085728;28;19955;-81
2021/04/10 04:59:06;;;;;;;;;;;;;;;1.37;100.00;98845.75;5052134;28;20375;-81
2021/04/10 05:01:32;;;;;;;;;;;;;;;1.50;100.00;98847.13;5086347;28;19925;-81
2021/04/10 05:03:59;;;;;;;;;;;;;;;1.50;100.00;98835.34;5051719;28;19932;-81
2021/04/10 05:06:26;;;;;;;;;;;;;;;1.53;100.00;98846.41;5044620;28;19928;-81
2021/04/10 05:08:52;;;;;;;;;;;;;;;1.53;100.00;98840.91;5057751;28;19932;-81
2021/04/10 05:11:19;;;;;;;;;;;;;;;1.61;100.00;98850.06;5060395;28;19925;-81
2021/04/10 05:13:45;;;;;;;;;;;;;;;1.60;100.00;98841.03;5079204;28;19929;-81
2021/04/10 05:16:12;;;;;;;;;;;;;;;1.87;100.00;98839.06;5086562;28;19979;-81
2021/04/10 05:18:39;;;;;;;;;;;;;;;1.95;100.00;98839.94;5085425;28;19971;-81
2021/04/10 05:21:06;;;;;;;;;;;;;;;1.92;100.00;98841.50;5059339;28;19935;-81
2021/04/10 05:23:32;;;;;;;;;;;;;;;1.67;100.00;98841.13;5062875;28;20023;-81
2021/04/10 05:25:59;;;;;;;;;;;;;;;1.56;100.00;98840.16;5052005;28;19973;-81
2021/04/10 05:28:25;;;;;;;;;;;;;;;1.67;100.00;98837.56;5087083;28;20023;-81
2021/04/10 05:30:52;;;;;;;;;;;;;;;1.66;100.00;98845.06;5052440;28;19925;-81
2021/04/10 05:33:19;;;;;;;;;;;;;;;1.48;100.00;98838.47;5035834;28;19947;-81
2021/04/10 05:35:46;;;;;;;;;;;;;;;1.26;100.00;98846.72;5052020;28;19975;-81
2021/04/10 05:38:12;;;;;;;;;;;;;;;1.16;100.00;98850.91;5053293;28;19925;-81
2021/04/10 05:40:39;;;;;;;;;;;;;;;1.19;100.00;98847.41;5051725;28;20020;-81
2021/04/10 05:43:06;;;;;;;;;;;;;;;1.41;100.00;98860.38;5068663;28;19929;-81
2021/04/10 05:45:32;;;;;;;;;;;;;;;1.89;100.00;98854.03;5068440;28;20344;-81
2021/04/10 05:47:59;;;;;;;;;;;;;;;2.20;100.00;98857.63;5053053;28;19963;-81
2021/04/10 05:50:25;;;;;;;;;;;;;;;2.35;100.00;98859.44;5053483;28;20395;-81
2021/04/10 05:52:54;;;;;;;;;;;;;;;2.48;100.00;98863.53;5032035;28;19925;-81
2021/04/10 05:55:20;;;;;;;;;;;;;;;2.70;100.00;98865.34;5044266;28;20011;-81
2021/04/10 05:57:47;;;;;;;;;;;;;;;2.69;100.00;98863.78;5051779;28;19932;-81
2021/04/10 06:00:14;;;;;;;;;;;;;;;2.54;100.00;98857.31;5053055;28;19928;-79
2021/04/10 06:02:41;;;;;;;;;;;;;;;2.74;100.00;98860.69;5055253;28;20368;-82
2021/04/10 06:05:08;;;;;;;;;;;;;;;3.33;100.00;98866.81;5054502;28;19932;-78
2021/04/10 06:07:35;;;;;;;;;;;;;;;3.66;100.00;98874.25;5087929;28;19968;-77
2021/04/10 06:10:03;;;;;;;;;;;;;;;3.84;100.00;98879.91;5055756;28;20015;-77
2021/04/10 06:12:29;;;;;;;;;;;;;;;4.08;100.00;98871.78;5056079;28;19925;-82
2021/04/10 06:14:56;;;;;;;;;;;;;;;4.20;100.00;98867.88;5065725;28;19933;-79
2021/04/10 06:17:23;;;;;;;;;;;;;;;4.29;100.00;98871.09;5063513;28;19979;-79
2021/04/10 06:19:49;;;;;;;;;;;;;;;4.34;100.00;98874.31;5055602;28;19925;-79
2021/04/10 06:22:27;;;;;;;;;;;;;;;4.29;100.00;98874.69;5055603;28;19929;-79
2021/04/10 06:24:53;;;;;;;;;;;;;;;4.49;100.00;98870.44;5055415;28;20027;-79
2021/04/10 06:27:20;;;;;;;;;;;;;;;4.80;100.00;98866.22;5055656;28;19932;-80
2021/04/10 06:29:46;;;;;;;;;;;;;;;5.26;100.00;98867.13;5055382;28;19932;-79
2021/04/10 06:32:13;;;;;;;;;;;;;;;5.63;100.00;98870.38;5055602;28;19929;-79
2021/04/10 06:34:39;;;;;;;;;;;;;;;5.30;100.00;98863.19;5087488;28;19929;-80
2021/04/10 06:37:06;;;;;;;;;;;;;;;4.82;100.00;98864.66;5054263;28;19925;-80
2021/04/10 06:39:33;;;;;;;;;;;;;;;4.30;100.00;98862.41;5058573;28;19924;-80
2021/04/10 06:42:03;;;;;;;;;;;;;;;3.89;100.00;98861.00;5066670;28;19967;-79
2021/04/10 06:44:30;;;;;;;;;;;;;;;3.89;100.00;98865.72;5052674;28;20023;-80
2021/04/10 06:46:59;;;;;;;;;;;;;;;3.69;100.00;98868.75;5050998;28;19925;-79
2021/04/10 06:49:26;;;;;;;;;;;;;;;3.63;100.00;98863.94;5051292;28;20288;-81
2021/04/10 06:51:53;;;;;;;;;;;;;;;3.60;100.00;98868.25;5055238;28;19967;-83
2021/04/10 06:54:20;;;;;;;;;;;;;;;3.43;100.00;98871.69;5070581;28;19933;-81
2021/04/10 06:56:56;;;;;;;;;;;;;;;3.30;100.00;98869.56;5062540;28;19951;-81
2021/04/10 06:59:23;;;;;;;;;;;;;;;3.26;100.00;98871.50;5066608;28;20413;-81
2021/04/10 07:01:50;;;;;;;;;;;;;;;3.13;100.00;98875.72;5065391;28;19978;-81
2021/04/10 07:04:17;;;;;;;;;;;;;;;3.08;100.00;98876.03;5054143;28;19925;-81
2021/04/10 07:06:45;;;;;;;;;;;;;;;3.24;100.00;98873.84;5048112;28;19979;-81
2021/04/10 07:09:12;;;;;;;;;;;;;;;3.46;100.00;98881.16;5054006;28;19935;-79
2021/04/10 07:11:39;;;;;;;;;;;;;;;3.34;100.00;98878.69;5064482;28;19986;-79
2021/04/10 07:14:05;;;;;;;;;;;;;;;3.35;100.00;98881.06;5082436;28;19925;-78
2021/04/10 07:16:38;;;;;;;;;;;;;;;3.46;100.00;98881.97;5059317;28;19928;-80
2021/04/10 07:19:12;;;;;;;;;;;;;;;3.35;100.00;98880.25;5082163;28;19967;-82
2021/04/10 07:21:39;;;;;;;;;;;;;;;3.11;100.00;98889.09;5089228;28;20284;-81
2021/04/10 07:24:06;;;;;;;;;;;;;;;3.05;100.00;98885.06;5053393;28;19963;-81
2021/04/10 07:26:44;;;;;;;;;;;;;;;3.06;100.00;98884.69;5053166;28;19929;-82
2021/04/10 07:29:30;;;;;;;;;;;;;;;2.89;100.00;98896.31;5052984;28;19928;-82
2021/04/10 07:32:00;;;;;;;;;;;;;;;2.98;100.00;98894.09;5053294;28;19934;-83
2021/04/10 07:34:43;;;;;;;;;;;;;;;3.00;100.00;98896.47;5052876;28;19932;-82
2021/04/10 07:37:10;;;;;;;;;;;;;;;3.01;100.00;98898.88;5050672;28;19963;-80
2021/04/10 07:39:44;;;;;;;;;;;;;;;3.12;100.00;98908.03;5055117;28;20067;-83
2021/04/10 07:42:11;;;;;;;;;;;;;;;3.19;100.00;98899.03;5087454;28;20019;-82
2021/04/10 07:44:41;;;;;;;;;;;;;;;3.38;100.00;98896.06;5049947;28;19925;-82
2021/04/10 07:47:09;;;;;;;;;;;;;;;3.48;100.00;98901.69;5069907;28;19978;-81
2021/04/10 07:49:39;;;;;;;;;;;;;;;3.47;100.00;98894.59;5088395;28;19963;-82
2021/04/10 07:52:07;;;;;;;;;;;;;;;3.62;100.00;98895.50;5067463;28;20422;-82
2021/04/10 07:54:35;;;;;;;;;;;;;;;3.54;100.00;98893.88;5070518;28;20446;-82
2021/04/10 07:57:11;;;;;;;;;;;;;;;3.72;100.00;98894.81;5072887;28;19924;-82
2021/04/10 07:59:50;;;;;;;;;;;;;;;3.73;100.00;98891.66;5073179;28;20383;-81
2021/04/10 08:02:18;;;;;;;;;;;;;;;3.62;100.00;98893.53;5057081;28;19925;-80
2021/04/10 08:04:54;;;;;;;;;;;;;;;3.83;100.00;98898.47;5052912;28;19932;-80
2021/04/10 08:07:28;;;;;;;;;;;;;;;3.91;100.00;98899.31;5045556;28;20277;-80
2021/04/10 08:10:02;;;;;;;;;;;;;;;3.90;100.00;98892.97;5053588;28;20014;-82
2021/04/10 08:12:33;;;;;;;;;;;;;;;3.93;100.00;98900.50;5054020;28;20391;-81
2021/04/10 08:15:01;;;;;;;;;;;;;;;4.17;100.00;98888.81;5052513;28;19928;-80
2021/04/10 08:17:35;;;;;;;;;;;;;;;4.51;100.00;98893.00;5046660;28;19925;-81
2021/04/10 08:20:20;;;;;;;;;;;;;;;4.58;100.00;98881.94;5040232;28;19925;-81
2021/04/10 08:22:48;;;;;;;;;;;;;;;4.44;100.00;98887.41;5082129;28;19933;-81
2021/04/10 08:25:31;;;;;;;;;;;;;;;4.46;100.00;98879.53;5049216;28;19971;-81
2021/04/10 08:27:58;;;;;;;;;;;;;;;4.55;100.00;98882.72;5063700;28;20364;-80
2021/04/10 08:30:26;;;;;;;;;;;;;;;4.53;100.00;98874.00;5049599;28;19998;-80
2021/04/10 08:32:52;;;;;;;;;;;;;;;4.42;100.00;98877.91;5049199;28;19925;-81
2021/04/10 08:35:22;;;;;;;;;;;;;;;4.37;100.00;98870.78;5048881;28;19936;-80
2021/04/10 08:37:56;;;;;;;;;;;;;;;4.89;100.00;98872.19;5081867;28;20426;-80
2021/04/10 08:40:23;;;;;;;;;;;;;;;4.96;100.00;98867.47;5049372;28;20480;-79
2021/04/10 08:42:54;;;;;;;;;;;;;;;5.18;100.00;98866.34;5049060;28;19924;-81
2021/04/10 08:45:23;;;;;;;;;;;;;;;5.50;100.00;98869.94;5083125;28;19936;-79
2021/04/10 08:47:50;;;;;;;;;;;;;;;5.26;100.00;98867.13;5063084;28;20050;-81
2021/04/10 08:50:29;;;;;;;;;;;;;;;5.51;100.00;98862.44;5056854;28;20027;-80
2021/04/10 08:52:56;;;;;;;;;;;;;;;5.97;100.00;98868.00;5054148;28;19939;-81
2021/04/10 08:55:24;;;;;;;;;;;;;;;6.00;100.00;98868.00;5052475;28;19967;-80
2021/04/10 08:57:50;;;;;;;;;;;;;;;6.24;100.00;98858.84;5049915;28;19936;-80
2021/04/10 09:00:18;;;;;;;;;;;;;;;6.14;100.00;98859.66;5052095;28;20085;-81
2021/04/10 09:02:52;;;;;;;;;;;;;;;5.52;100.00;98859.28;5054904;28;19928;-82
2021/04/10 09:05:20;;;;;;;;;;;;;;;5.69;100.00;98862.44;5078269;28;19925;-81
2021/04/10 09:07:49;;;;;;;;;;;;;;;5.85;100.00;98860.06;5044572;28;20059;-81
2021/04/10 09:10:28;;;;;;;;;;;;;;;6.03;100.00;98856.09;5079064;28;19998;-80
2021/04/10 09:13:16;;;;;;;;;;;;;;;5.98;100.00;98864.84;5071613;28;20277;-81
2021/04/10 09:15:42;;;;;;;;;;;;;;;6.09;100.00;98860.06;5044726;28;19966;-80
2021/04/10 09:18:10;;;;;;;;;;;;;;;5.82;100.00;98858.09;5077085;28;19925;-80
2021/04/10 09:20:57;;;;;;;;;;;;;;;5.48;100.00;98857.69;5055803;28;19990;-80
2021/04/10 09:23:23;;;;;;;;;;;;;;;5.70;100.00;98853.72;5056170;28;20386;-80
2021/04/10 09:26:10;;;;;;;;;;;;;;;5.81;100.00;98850.94;5074947;28;20423;-80
2021/04/10 09:28:55;;;;;;;;;;;;;;;5.97;100.00;98862.47;5083636;28;19930;-80
2021/04/10 09:31:35;;;;;;;;;;;;;;;5.65;100.00;98850.56;5062652;28;19931;-79
2021/04/10 09:34:02;;;;;;;;;;;;;;;5.88;100.00;98851.00;5056230;28;19924;-80
2021/04/10 09:36:55;;;;;;;;;;;;;;;6.33;100.00;98864.00;5053800;28;19998;-80
2021/04/10 09:39:41;;;;;;;;;;;;;;;6.51;100.00;98871.06;5061937;28;19925;-79
2021/04/10 09:42:07;;;;;;;;;;;;;;;6.47;100.00;98852.81;5055122;28;20012;-79
2021/04/10 09:44:54;;;;;;;;;;;;;;;6.57;100.00;98860.34;5053916;28;19949;-80
2021/04/10 09:47:21;;;;;;;;;;;;;;;6.38;100.00;98860.78;5065451;28;19925;-77
2021/04/10 09:49:48;;;;;;;;;;;;;;;6.35;100.00;98856.84;5056139;28;19964;-80
2021/04/10 09:52:16;;;;;;;;;;;;;;;6.38;100.00;98861.59;5065024;28;19925;-80
2021/04/10 09:54:43;;;;;;;;;;;;;;;6.23;100.00;98850.91;5061139;28;19925;-79
2021/04/10 09:57:17;;;;;;;;;;;;;;;5.84;100.00;98852.94;5068592;28;19932;-80
2021/04/10 09:59:46;;;;;;;;;;;;;;;5.83;100.00;98851.38;5061653;28;19932;-79
2021/04/10 10:02:25;;;;;;;;;;;;;;;5.59;100.00;98853.72;5064938;28;20011;-80
2021/04/10 10:04:52;;;;;;;;;;;;;;;5.17;100.00;98867.53;5069151;28;19929;-80
2021/04/10 10:07:22;;;;;;;;;;;;;;;5.46;100.00;98860.06;5056044;28;19925;-80
2021/04/10 10:10:05;;;;;;;;;;;;;;;5.31;100.00;98859.25;5056037;28;20082;-80
2021/04/10 10:12:32;;;;;;;;;;;;;;;5.28;100.00;98851.72;5056299;28;19925;-80
2021/04/10 10:14:58;;;;;;;;;;;;;;;5.04;100.00;98857.97;5087992;28;20438;-79
2021/04/10 10:17:29;;;;;;;;;;;;;;;4.90;100.00;98855.19;5060300;28;19963;-80
2021/04/10 10:20:11;;;;;;;;;;;;;;;5.21;100.00;98848.94;5064685;28;19931;-80
2021/04/10 10:22:39;;;;;;;;;;;;;;;5.30;100.00;98852.09;5062132;28;19925;-81
2021/04/10 10:25:07;;;;;;;;;;;;;;;5.22;100.00;98856.06;5055418;28;20019;-80
2021/04/10 10:27:38;;;;;;;;;;;;;;;5.19;100.00;98851.31;5055878;28;19932;-80
2021/04/10 10:30:19;;;;;;;;;;;;;;;5.22;100.00;98855.28;5055748;28;19933;-80
2021/04/10 10:32:46;;;;;;;;;;;;;;;5.06;100.00;98846.50;5054134;28;19925;-79
2021/04/10 10:35:17;;;;;;;;;;;;;;;5.04;100.00;98852.44;5063888;28;19928;-79
2021/04/10 10:37:50;;;;;;;;;;;;;;;5.12;100.00;98851.28;5065153;28;20432;-80
2021/04/10 10:40:21;;;;;;;;;;;;;;;5.33;100.00;98854.09;5069437;28;19925;-78
2021/04/10 10:43:04;;;;;;;;;;;;;;;5.27;100.00;98852.91;5068081;28;19928;-80
2021/04/10 10:45:48;;;;;;;;;;;;;;;5.29;100.00;98845.00;5058819;28;19925;-80
2021/04/10 10:48:15;;;;;;;;;;;;;;;5.53;100.00;98860.03;5070494;28;20342;-80
2021/04/10 10:50:41;;;;;;;;;;;;;;;5.74;100.00;98842.63;5064628;28;19924;-80
2021/04/10 10:53:18;;;;;;;;;;;;;;;5.43;100.00;98856.09;5059496;28;20278;-80
2021/04/10 10:56:02;;;;;;;;;;;;;;;5.26;100.00;98856.84;5050370;28;19925;-82
2021/04/10 10:58:47;;;;;;;;;;;;;;;4.84;100.00;98862.28;5055866;28;20312;-80
2021/04/10 11:01:15;;;;;;;;;;;;;;;4.56;100.00;98862.16;5064637;28;20580;-79
2021/04/10 11:03:43;;;;;;;;;;;;;;;4.45;100.00;98866.88;5070929;28;19924;-79
2021/04/10 11:06:10;;;;;;;;;;;;;;;4.17;100.00;98861.16;5057921;28;19990;-78
2021/04/10 11:08:38;;;;;;;;;;;;;;;3.80;100.00;98857.78;5075599;28;19986;-76
2021/04/10 11:11:05;;;;;;;;;;;;;;;3.31;100.00;98862.88;5061055;28;19931;-78
2021/04/10 11:13:32;;;;;;;;;;;;;;;3.07;100.00;98874.47;5041012;28;19925;-79
2021/04/10 11:15:59;;;;;;;;;;;;;;;2.68;100.00;98884.28;5048842;28;19924;-79
2021/04/10 11:18:27;;;;;;;;;;;;;;;2.51;100.00;98890.34;5058391;28;19932;-79
2021/04/10 11:21:10;;;;;;;;;;;;;;;2.23;100.00;98887.22;5061371;28;19933;-79
2021/04/10 11:23:56;;;;;;;;;;;;;;;2.44;100.00;98884.75;5064112;28;20121;-79
2021/04/10 11:26:50;;;;;;;;;;;;;;;2.68;100.00;98878.75;5056537;28;20652;-79
2021/04/10 11:29:16;;;;;;;;;;;;;;;2.95;100.00;98888.53;5064968;28;19932;-79
2021/04/10 11:31:44;;;;;;;;;;;;;;;3.17;100.00;98893.09;5080846;28;19925;-78
2021/04/10 11:34:26;;;;;;;;;;;;;;;2.98;100.00;98887.78;5044539;28;20004;-78
2021/04/10 11:36:55;;;;;;;;;;;;;;;2.44;100.00;98884.75;5054276;28;19939;-78
2021/04/10 11:39:22;;;;;;;;;;;;;;;2.07;100.00;98889.34;5057135;28;19950;-78
2021/04/10 11:41:49;;;;;;;;;;;;;;;2.00;100.00;98898.28;5057582;28;19994;-77
2021/04/10 11:44:16;;;;;;;;;;;;;;;1.92;100.00;98888.34;5063293;28;20003;-76
2021/04/10 11:46:42;;;;;;;;;;;;;;;1.99;100.00;98895.91;5053718;28;20055;-77
2021/04/10 11:49:22;;;;;;;;;;;;;;;2.01;100.00;98901.84;5049561;28;19944;-77
2021/04/10 11:51:49;;;;;;;;;;;;;;;2.26;100.00;98903.03;5055377;28;20481;-77
2021/04/10 11:54:28;;;;;;;;;;;;;;;2.57;100.00;98902.66;5046579;28;19929;-77
2021/04/10 11:57:32;;;;;;;;;;;;;;;2.81;100.00;98904.91;5062900;28;19934;-77
2021/04/10 12:00:15;;;;;;;;;;;;;;;3.24;100.00;98898.72;5055904;28;19924;-79
2021/04/10 12:02:42;;;;;;;;;;;;;;;3.66;100.00;98908.16;5061408;28;19924;-79
2021/04/10 12:05:22;;;;;;;;;;;;;;;3.97;100.00;98906.06;5057689;28;19925;-79
2021/04/10 12:08:04;;;;;;;;;;;;;;;4.44;100.00;98904.00;5049887;28;19931;-79
2021/04/10 12:10:30;;;;;;;;;;;;;;;4.31;100.00;98907.47;5053724;28;20331;-78
2021/04/10 12:12:58;;;;;;;;;;;;;;;4.34;100.00;98903.94;5051074;28;19929;-78
2021/04/10 12:15:31;;;;;;;;;;;;;;;4.55;100.00;98893.78;5050337;28;19936;-78
2021/04/10 12:17:58;;;;;;;;;;;;;;;4.78;100.00;98894.31;5048192;28;19978;-78
2021/04/10 12:20:25;;;;;;;;;;;;;;;4.99;100.00;98891.63;5086175;28;20281;-78
2021/04/10 12:22:52;;;;;;;;;;;;;;;5.41;100.00;98883.41;5057857;28;19925;-79
2021/04/10 12:25:19;;;;;;;;;;;;;;;5.76;100.00;98884.59;5053607;28;19924;-76
2021/04/10 12:27:46;;;;;;;;;;;;;;;6.07;100.00;98879.09;5088688;28;19925;-79
2021/04/10 12:30:14;;;;;;;;;;;;;;;6.21;100.00;98878.28;5059858;28;20023;-79
2021/04/10 12:32:41;;;;;;;;;;;;;;;6.52;100.00;98877.41;5044748;28;19978;-78
2021/04/10 12:35:08;;;;;;;;;;;;;;;6.92;100.00;98871.31;5054059;28;19990;-78
2021/04/10 12:37:36;;;;;;;;;;;;;;;6.63;100.00;98861.53;5063199;28;20003;-78
2021/04/10 12:40:05;;;;;;;;;;;;;;;6.88;100.00;98862.19;5066927;28;19924;-77
2021/04/10 12:42:59;;;;;;;;;;;;;;;6.75;100.00;98847.19;5025889;28;20381;-78
2021/04/10 12:45:53;;;;;;;;;;;;;;;6.83;100.00;98843.19;5058471;28;20936;-77
2021/04/10 12:48:20;;;;;;;;;;;;;;;6.80;100.00;98838.44;5051051;28;20300;-77
2021/04/10 12:50:47;;;;;;;;;;;;;;;6.99;100.00;98835.97;5050836;28;19964;-78
2021/04/10 12:53:13;;;;;;;;;;;;;;;6.60;100.00;98838.13;5057238;28;19959;-78
2021/04/10 12:55:40;;;;;;;;;;;;;;;6.26;100.00;98830.69;5064066;28;19924;-77
2021/04/10 12:58:07;;;;;;;;;;;;;;;6.20;100.00;98822.00;5048621;28;20295;-78
2021/04/10 13:00:33;;;;;;;;;;;;;;;6.14;100.00;98822.78;5031872;28;20391;-78
2021/04/10 13:03:00;;;;;;;;;;;;;;;6.40;100.00;98825.09;5052331;28;19924;-78